Portada
METAR-TAF:

METAR-TAF

Aeroports :

Indore, Índia

latitud: 22-43N, longitud: 075-48E, altitud: 561 m

Observació

L'informe es va fer fa 27 minuts, a les 21:00 UTC
Vent calma
Temperatura 17°C
Humitat 59%
Pressió 1015 hPa
Visibilitat: 4000 m
calitja

METAR: VAID 262100Z 00000KT 4000 HZ NSC 17/09 Q1015 NOSIG

Hora: 02:57 (21:27 UTC)

Pronòstic

L'informe es va fer fa 7 hores i 27 minuts, a les 14:00 UTC
Pronòstic vàlid del 26 a les 15 UTC al 26 a les 24 UTC
Vent 5 kt del Nord-Est
Visibilitat: 6000 m
Evolucionant progressivament
l' 26 a les 22 UTC al 26 a les 24 UTC
Vent 5 kt del Nord-Est
Visibilitat: 5000 m
calitja

TAF: VAID 261400Z 2615/2624 05005KT 6000 NSC BECMG 2622/2624 05005KT 5000 HZ NSC

Observacions i pronòstics meteorològics de més de 4000 aeroports (METAR i TAF).

Les estacions disponibles són els punts grocs i vermells al mapa.

Posi el ratolí al punt desitjat per veure el nom de l'estació.

Feu clic per veure les observacions i els pronòstics meteorològics.

Per canviar el mapa: feu clic els botons verds amb una creu de color negre per apropar; al botó verd amb un guió per allunyar la imatge; o en les fletxes verdes per a mapes adjacents.


METAR-TAF: